sensor_id;sensor_type;location;lat;lon;timestamp;temperature;humidity
2639;DHT22;1329;51.384;7.122;2022-07-17T00:02:23;17.60;1.00
2639;DHT22;1329;51.384;7.122;2022-07-17T00:04:50;17.60;1.00
2639;DHT22;1329;51.384;7.122;2022-07-17T00:07:19;17.50;1.00
2639;DHT22;1329;51.384;7.122;2022-07-17T00:09:46;17.60;1.00
2639;DHT22;1329;51.384;7.122;2022-07-17T00:12:13;17.50;1.00
2639;DHT22;1329;51.384;7.122;2022-07-17T00:14:40;17.50;1.00
2639;DHT22;1329;51.384;7.122;2022-07-17T00:17:07;17.50;1.00
2639;DHT22;1329;51.384;7.122;2022-07-17T00:19:35;17.40;1.00
2639;DHT22;1329;51.384;7.122;2022-07-17T00:22:02;17.40;1.00
2639;DHT22;1329;51.384;7.122;2022-07-17T00:24:30;17.40;1.00
2639;DHT22;1329;51.384;7.122;2022-07-17T00:26:57;17.40;1.00
2639;DHT22;1329;51.384;7.122;2022-07-17T00:29:25;17.30;1.00
2639;DHT22;1329;51.384;7.122;2022-07-17T00:31:52;17.30;1.00
2639;DHT22;1329;51.384;7.122;2022-07-17T00:34:19;17.20;1.00
2639;DHT22;1329;51.384;7.122;2022-07-17T00:36:47;17.20;1.00
2639;DHT22;1329;51.384;7.122;2022-07-17T00:39:14;17.20;1.00
2639;DHT22;1329;51.384;7.122;2022-07-17T00:41:44;17.20;1.00
2639;DHT22;1329;51.384;7.122;2022-07-17T00:44:12;17.20;1.00
2639;DHT22;1329;51.384;7.122;2022-07-17T00:46:39;17.10;1.00
2639;DHT22;1329;51.384;7.122;2022-07-17T00:49:08;17.10;1.00
2639;DHT22;1329;51.384;7.122;2022-07-17T00:51:36;17.10;1.00
2639;DHT22;1329;51.384;7.122;2022-07-17T00:54:03;17.10;1.00
2639;DHT22;1329;51.384;7.122;2022-07-17T00:56:31;17.00;1.00
2639;DHT22;1329;51.384;7.122;2022-07-17T00:59:01;17.00;1.00
2639;DHT22;1329;51.384;7.122;2022-07-17T01:01:29;17.00;1.00
2639;DHT22;1329;51.384;7.122;2022-07-17T01:03:57;16.90;1.00
2639;DHT22;1329;51.384;7.122;2022-07-17T01:06:24;16.90;1.00
2639;DHT22;1329;51.384;7.122;2022-07-17T01:08:51;16.80;1.00
2639;DHT22;1329;51.384;7.122;2022-07-17T01:11:18;16.80;1.00
2639;DHT22;1329;51.384;7.122;2022-07-17T01:13:47;16.80;1.00
2639;DHT22;1329;51.384;7.122;2022-07-17T01:16:15;16.70;1.00
2639;DHT22;1329;51.384;7.122;2022-07-17T01:18:42;16.70;1.00
2639;DHT22;1329;51.384;7.122;2022-07-17T01:21:11;16.70;1.00
2639;DHT22;1329;51.384;7.122;2022-07-17T01:23:38;16.60;1.00
2639;DHT22;1329;51.384;7.122;2022-07-17T01:26:05;16.70;1.00
2639;DHT22;1329;51.384;7.122;2022-07-17T01:28:32;16.60;1.00
2639;DHT22;1329;51.384;7.122;2022-07-17T01:31:00;16.60;1.00
2639;DHT22;1329;51.384;7.122;2022-07-17T01:33:29;16.60;1.00
2639;DHT22;1329;51.384;7.122;2022-07-17T01:35:56;16.50;1.00
2639;DHT22;1329;51.384;7.122;2022-07-17T01:38:24;16.50;1.00
2639;DHT22;1329;51.384;7.122;2022-07-17T01:40:51;16.40;1.00
2639;DHT22;1329;51.384;7.122;2022-07-17T01:43:19;16.40;1.00
2639;DHT22;1329;51.384;7.122;2022-07-17T01:45:46;16.40;1.00
2639;DHT22;1329;51.384;7.122;2022-07-17T01:48:23;16.30;1.00
2639;DHT22;1329;51.384;7.122;2022-07-17T01:50:51;16.30;1.00
2639;DHT22;1329;51.384;7.122;2022-07-17T01:53:18;16.30;1.00
2639;DHT22;1329;51.384;7.122;2022-07-17T01:55:47;16.30;1.00
2639;DHT22;1329;51.384;7.122;2022-07-17T01:58:15;16.20;1.00
2639;DHT22;1329;51.384;7.122;2022-07-17T02:00:42;16.20;1.00
2639;DHT22;1329;51.384;7.122;2022-07-17T02:03:10;16.20;1.00
2639;DHT22;1329;51.384;7.122;2022-07-17T02:05:37;16.30;1.00
2639;DHT22;1329;51.384;7.122;2022-07-17T02:08:05;16.10;1.00
2639;DHT22;1329;51.384;7.122;2022-07-17T02:10:33;16.10;1.00
2639;DHT22;1329;51.384;7.122;2022-07-17T02:13:06;16.10;1.00
2639;DHT22;1329;51.384;7.122;2022-07-17T02:15:33;16.10;1.00
2639;DHT22;1329;51.384;7.122;2022-07-17T02:18:00;16.00;1.00
2639;DHT22;1329;51.384;7.122;2022-07-17T02:20:27;16.00;1.00
2639;DHT22;1329;51.384;7.122;2022-07-17T02:22:54;15.90;1.00
2639;DHT22;1329;51.384;7.122;2022-07-17T02:25:21;15.90;1.00
2639;DHT22;1329;51.384;7.122;2022-07-17T02:27:48;15.90;1.00
2639;DHT22;1329;51.384;7.122;2022-07-17T02:30:17;15.80;1.00
2639;DHT22;1329;51.384;7.122;2022-07-17T02:32:45;15.80;1.00
2639;DHT22;1329;51.384;7.122;2022-07-17T02:35:13;15.80;1.00
2639;DHT22;1329;51.384;7.122;2022-07-17T02:37:40;15.80;1.00
2639;DHT22;1329;51.384;7.122;2022-07-17T02:40:09;15.70;1.00
2639;DHT22;1329;51.384;7.122;2022-07-17T02:42:38;15.70;1.00
2639;DHT22;1329;51.384;7.122;2022-07-17T02:45:06;15.70;1.00
2639;DHT22;1329;51.384;7.122;2022-07-17T02:47:36;15.70;1.00
2639;DHT22;1329;51.384;7.122;2022-07-17T02:50:05;15.70;1.00
2639;DHT22;1329;51.384;7.122;2022-07-17T02:52:34;15.60;1.00
2639;DHT22;1329;51.384;7.122;2022-07-17T02:55:01;15.60;1.00
2639;DHT22;1329;51.384;7.122;2022-07-17T02:57:28;15.60;1.00
2639;DHT22;1329;51.384;7.122;2022-07-17T02:59:55;15.60;1.00
2639;DHT22;1329;51.384;7.122;2022-07-17T03:02:22;15.60;1.00
2639;DHT22;1329;51.384;7.122;2022-07-17T03:04:51;15.60;1.00
2639;DHT22;1329;51.384;7.122;2022-07-17T03:07:18;15.60;1.00
2639;DHT22;1329;51.384;7.122;2022-07-17T03:09:45;15.50;1.00
2639;DHT22;1329;51.384;7.122;2022-07-17T03:12:12;15.50;1.00
2639;DHT22;1329;51.384;7.122;2022-07-17T03:14:39;15.50;1.00
2639;DHT22;1329;51.384;7.122;2022-07-17T03:17:06;15.50;1.00
2639;DHT22;1329;51.384;7.122;2022-07-17T03:19:34;15.40;1.00
2639;DHT22;1329;51.384;7.122;2022-07-17T03:22:02;15.40;1.00
2639;DHT22;1329;51.384;7.122;2022-07-17T03:24:30;15.40;1.00
2639;DHT22;1329;51.384;7.122;2022-07-17T03:26:57;15.40;1.00
2639;DHT22;1329;51.384;7.122;2022-07-17T03:29:24;15.40;1.00
2639;DHT22;1329;51.384;7.122;2022-07-17T03:31:51;15.40;1.00
2639;DHT22;1329;51.384;7.122;2022-07-17T03:34:18;15.40;1.00
2639;DHT22;1329;51.384;7.122;2022-07-17T03:36:45;15.30;1.00
2639;DHT22;1329;51.384;7.122;2022-07-17T03:39:14;15.30;1.00
2639;DHT22;1329;51.384;7.122;2022-07-17T03:41:42;15.30;1.00
2639;DHT22;1329;51.384;7.122;2022-07-17T03:44:09;15.30;1.00
2639;DHT22;1329;51.384;7.122;2022-07-17T03:46:36;15.30;1.00
2639;DHT22;1329;51.384;7.122;2022-07-17T03:49:03;15.20;1.00
2639;DHT22;1329;51.384;7.122;2022-07-17T03:51:30;15.20;1.00
2639;DHT22;1329;51.384;7.122;2022-07-17T03:53:58;15.20;1.00
2639;DHT22;1329;51.384;7.122;2022-07-17T03:56:26;15.10;1.00
2639;DHT22;1329;51.384;7.122;2022-07-17T03:58:53;15.10;1.00
2639;DHT22;1329;51.384;7.122;2022-07-17T04:01:20;15.10;1.00
2639;DHT22;1329;51.384;7.122;2022-07-17T04:03:48;15.10;1.00
2639;DHT22;1329;51.384;7.122;2022-07-17T04:06:15;15.00;1.00
2639;DHT22;1329;51.384;7.122;2022-07-17T04:08:42;15.00;1.00
2639;DHT22;1329;51.384;7.122;2022-07-17T04:11:10;15.00;1.00
2639;DHT22;1329;51.384;7.122;2022-07-17T04:13:39;15.00;1.00
2639;DHT22;1329;51.384;7.122;2022-07-17T04:16:06;15.00;1.00
2639;DHT22;1329;51.384;7.122;2022-07-17T04:18:35;15.00;1.00
2639;DHT22;1329;51.384;7.122;2022-07-17T04:21:04;14.90;1.00
2639;DHT22;1329;51.384;7.122;2022-07-17T04:23:32;14.90;1.00
2639;DHT22;1329;51.384;7.122;2022-07-17T04:26:00;14.90;1.00
2639;DHT22;1329;51.384;7.122;2022-07-17T04:28:27;14.90;1.00
2639;DHT22;1329;51.384;7.122;2022-07-17T04:30:56;14.90;1.00
2639;DHT22;1329;51.384;7.122;2022-07-17T04:33:23;14.90;1.00
2639;DHT22;1329;51.384;7.122;2022-07-17T04:35:50;14.90;1.00
2639;DHT22;1329;51.384;7.122;2022-07-17T04:38:17;14.90;1.00
2639;DHT22;1329;51.384;7.122;2022-07-17T04:40:44;14.90;1.00
2639;DHT22;1329;51.384;7.122;2022-07-17T04:43:12;15.00;1.00
2639;DHT22;1329;51.384;7.122;2022-07-17T04:45:39;15.00;1.00
2639;DHT22;1329;51.384;7.122;2022-07-17T04:48:08;15.00;1.00
2639;DHT22;1329;51.384;7.122;2022-07-17T04:50:35;15.00;1.00
2639;DHT22;1329;51.384;7.122;2022-07-17T04:53:02;15.10;1.00
2639;DHT22;1329;51.384;7.122;2022-07-17T04:55:29;15.10;1.00
2639;DHT22;1329;51.384;7.122;2022-07-17T04:57:57;15.10;1.00
2639;DHT22;1329;51.384;7.122;2022-07-17T05:00:24;15.20;1.00
2639;DHT22;1329;51.384;7.122;2022-07-17T05:02:51;15.20;1.00
2639;DHT22;1329;51.384;7.122;2022-07-17T05:05:20;15.30;1.00
2639;DHT22;1329;51.384;7.122;2022-07-17T05:07:47;15.30;1.00
2639;DHT22;1329;51.384;7.122;2022-07-17T05:10:15;15.30;1.00
2639;DHT22;1329;51.384;7.122;2022-07-17T05:12:42;15.30;1.00
2639;DHT22;1329;51.384;7.122;2022-07-17T05:15:10;15.40;1.00
2639;DHT22;1329;51.384;7.122;2022-07-17T05:17:37;15.40;1.00
2639;DHT22;1329;51.384;7.122;2022-07-17T05:20:05;15.30;1.00
2639;DHT22;1329;51.384;7.122;2022-07-17T05:22:35;15.40;1.00
2639;DHT22;1329;51.384;7.122;2022-07-17T05:25:02;15.40;1.00
2639;DHT22;1329;51.384;7.122;2022-07-17T05:27:30;15.50;1.00
2639;DHT22;1329;51.384;7.122;2022-07-17T05:29:57;15.50;1.00
2639;DHT22;1329;51.384;7.122;2022-07-17T05:32:24;15.50;1.00
2639;DHT22;1329;51.384;7.122;2022-07-17T05:34:51;15.60;1.00
2639;DHT22;1329;51.384;7.122;2022-07-17T05:37:18;15.60;1.00
2639;DHT22;1329;51.384;7.122;2022-07-17T05:39:47;15.60;1.00
2639;DHT22;1329;51.384;7.122;2022-07-17T05:42:14;15.60;1.00
2639;DHT22;1329;51.384;7.122;2022-07-17T05:44:41;15.70;1.00
2639;DHT22;1329;51.384;7.122;2022-07-17T05:47:08;15.70;1.00
2639;DHT22;1329;51.384;7.122;2022-07-17T05:49:35;15.70;1.00
2639;DHT22;1329;51.384;7.122;2022-07-17T05:52:02;15.80;1.00
2639;DHT22;1329;51.384;7.122;2022-07-17T05:54:30;15.80;1.00
2639;DHT22;1329;51.384;7.122;2022-07-17T05:56:59;15.90;1.00
2639;DHT22;1329;51.384;7.122;2022-07-17T05:59:27;15.90;1.00
2639;DHT22;1329;51.384;7.122;2022-07-17T06:01:54;16.00;1.00
2639;DHT22;1329;51.384;7.122;2022-07-17T06:04:21;16.00;1.00
2639;DHT22;1329;51.384;7.122;2022-07-17T06:06:48;16.10;1.00
2639;DHT22;1329;51.384;7.122;2022-07-17T06:09:15;16.20;1.00
2639;DHT22;1329;51.384;7.122;2022-07-17T06:11:42;16.20;1.00
2639;DHT22;1329;51.384;7.122;2022-07-17T06:14:11;16.30;1.00
2639;DHT22;1329;51.384;7.122;2022-07-17T06:16:38;16.40;1.00
2639;DHT22;1329;51.384;7.122;2022-07-17T06:19:05;16.40;1.00
2639;DHT22;1329;51.384;7.122;2022-07-17T06:21:32;16.50;1.00
2639;DHT22;1329;51.384;7.122;2022-07-17T06:23:59;16.50;1.00
2639;DHT22;1329;51.384;7.122;2022-07-17T06:26:26;16.50;1.00
2639;DHT22;1329;51.384;7.122;2022-07-17T06:28:53;16.60;1.00
2639;DHT22;1329;51.384;7.122;2022-07-17T06:31:22;16.70;1.00
2639;DHT22;1329;51.384;7.122;2022-07-17T06:33:49;16.70;1.00
2639;DHT22;1329;51.384;7.122;2022-07-17T06:36:16;16.80;1.00
2639;DHT22;1329;51.384;7.122;2022-07-17T06:38:43;16.90;1.00
2639;DHT22;1329;51.384;7.122;2022-07-17T06:41:10;16.90;1.00
2639;DHT22;1329;51.384;7.122;2022-07-17T06:43:37;17.00;1.00
2639;DHT22;1329;51.384;7.122;2022-07-17T06:46:04;17.00;1.00
2639;DHT22;1329;51.384;7.122;2022-07-17T06:48:33;17.10;1.00
2639;DHT22;1329;51.384;7.122;2022-07-17T06:51:00;17.20;1.00
2639;DHT22;1329;51.384;7.122;2022-07-17T06:53:28;17.20;1.00
2639;DHT22;1329;51.384;7.122;2022-07-17T06:55:55;17.30;1.00
2639;DHT22;1329;51.384;7.122;2022-07-17T06:58:22;17.40;1.00
2639;DHT22;1329;51.384;7.122;2022-07-17T07:00:49;17.40;1.00
2639;DHT22;1329;51.384;7.122;2022-07-17T07:03:16;17.50;1.00
2639;DHT22;1329;51.384;7.122;2022-07-17T07:05:44;17.60;1.00
2639;DHT22;1329;51.384;7.122;2022-07-17T07:08:11;17.70;1.00
2639;DHT22;1329;51.384;7.122;2022-07-17T07:10:38;17.70;1.00
2639;DHT22;1329;51.384;7.122;2022-07-17T07:13:08;17.80;1.00
2639;DHT22;1329;51.384;7.122;2022-07-17T07:15:37;17.90;1.00
2639;DHT22;1329;51.384;7.122;2022-07-17T07:18:05;18.00;1.00
2639;DHT22;1329;51.384;7.122;2022-07-17T07:20:32;18.00;1.00
2639;DHT22;1329;51.384;7.122;2022-07-17T07:23:00;18.10;1.00
2639;DHT22;1329;51.384;7.122;2022-07-17T07:25:28;18.20;1.00
2639;DHT22;1329;51.384;7.122;2022-07-17T07:27:55;18.20;1.00
2639;DHT22;1329;51.384;7.122;2022-07-17T07:30:22;18.30;1.00
2639;DHT22;1329;51.384;7.122;2022-07-17T07:32:49;18.40;1.00
2639;DHT22;1329;51.384;7.122;2022-07-17T07:35:17;18.50;1.00
2639;DHT22;1329;51.384;7.122;2022-07-17T07:37:44;18.50;1.00
2639;DHT22;1329;51.384;7.122;2022-07-17T07:40:12;18.60;1.00
2639;DHT22;1329;51.384;7.122;2022-07-17T07:42:40;18.70;1.00
2639;DHT22;1329;51.384;7.122;2022-07-17T07:45:08;18.80;1.00
2639;DHT22;1329;51.384;7.122;2022-07-17T07:47:41;18.90;1.00
2639;DHT22;1329;51.384;7.122;2022-07-17T07:50:09;19.00;1.00
2639;DHT22;1329;51.384;7.122;2022-07-17T07:52:37;19.00;1.00
2639;DHT22;1329;51.384;7.122;2022-07-17T07:55:05;19.20;1.00
2639;DHT22;1329;51.384;7.122;2022-07-17T07:57:37;19.20;1.00
2639;DHT22;1329;51.384;7.122;2022-07-17T08:00:05;19.30;1.00
2639;DHT22;1329;51.384;7.122;2022-07-17T08:02:34;19.40;1.00
2639;DHT22;1329;51.384;7.122;2022-07-17T08:05:02;19.50;1.00
2639;DHT22;1329;51.384;7.122;2022-07-17T08:07:30;19.50;1.00
2639;DHT22;1329;51.384;7.122;2022-07-17T08:09:57;19.60;1.00
2639;DHT22;1329;51.384;7.122;2022-07-17T08:12:25;19.70;1.00
2639;DHT22;1329;51.384;7.122;2022-07-17T08:14:53;19.80;1.00
2639;DHT22;1329;51.384;7.122;2022-07-17T08:17:20;19.90;1.00
2639;DHT22;1329;51.384;7.122;2022-07-17T08:19:47;19.90;1.00
2639;DHT22;1329;51.384;7.122;2022-07-17T08:22:14;20.00;1.00
2639;DHT22;1329;51.384;7.122;2022-07-17T08:24:41;20.10;1.00
2639;DHT22;1329;51.384;7.122;2022-07-17T08:27:08;20.10;1.00
2639;DHT22;1329;51.384;7.122;2022-07-17T08:29:36;20.20;1.00
2639;DHT22;1329;51.384;7.122;2022-07-17T08:32:05;20.30;1.00
2639;DHT22;1329;51.384;7.122;2022-07-17T08:34:35;20.30;1.00
2639;DHT22;1329;51.384;7.122;2022-07-17T08:37:02;20.40;1.00
2639;DHT22;1329;51.384;7.122;2022-07-17T08:39:29;20.50;1.00
2639;DHT22;1329;51.384;7.122;2022-07-17T08:41:56;20.50;1.00
2639;DHT22;1329;51.384;7.122;2022-07-17T08:44:26;20.60;1.00
2639;DHT22;1329;51.384;7.122;2022-07-17T08:46:54;20.60;1.00
2639;DHT22;1329;51.384;7.122;2022-07-17T08:49:23;20.70;1.00
2639;DHT22;1329;51.384;7.122;2022-07-17T08:51:51;20.70;1.00
2639;DHT22;1329;51.384;7.122;2022-07-17T08:54:21;20.80;1.00
2639;DHT22;1329;51.384;7.122;2022-07-17T08:56:49;20.90;1.00
2639;DHT22;1329;51.384;7.122;2022-07-17T08:59:16;21.00;1.00
2639;DHT22;1329;51.384;7.122;2022-07-17T09:01:43;21.10;1.00
2639;DHT22;1329;51.384;7.122;2022-07-17T09:04:12;21.30;1.00
2639;DHT22;1329;51.384;7.122;2022-07-17T09:06:41;21.50;1.00
2639;DHT22;1329;51.384;7.122;2022-07-17T09:09:09;21.80;1.00
2639;DHT22;1329;51.384;7.122;2022-07-17T09:11:48;22.30;1.00
2639;DHT22;1329;51.384;7.122;2022-07-17T09:14:17;22.70;1.00
2639;DHT22;1329;51.384;7.122;2022-07-17T09:16:49;23.20;1.00
2639;DHT22;1329;51.384;7.122;2022-07-17T09:19:28;23.60;1.00
2639;DHT22;1329;51.384;7.122;2022-07-17T09:22:09;24.10;1.00
2639;DHT22;1329;51.384;7.122;2022-07-17T09:24:44;24.60;1.00
2639;DHT22;1329;51.384;7.122;2022-07-17T09:27:15;25.10;1.00
2639;DHT22;1329;51.384;7.122;2022-07-17T09:29:58;25.50;1.00
2639;DHT22;1329;51.384;7.122;2022-07-17T09:32:29;25.90;1.00
2639;DHT22;1329;51.384;7.122;2022-07-17T09:34:59;26.20;1.00
2639;DHT22;1329;51.384;7.122;2022-07-17T09:37:43;26.50;1.00
2639;DHT22;1329;51.384;7.122;2022-07-17T09:40:14;26.80;1.00
2639;DHT22;1329;51.384;7.122;2022-07-17T09:43:14;27.00;1.00
2639;DHT22;1329;51.384;7.122;2022-07-17T09:45:45;27.20;1.00
2639;DHT22;1329;51.384;7.122;2022-07-17T09:48:14;27.20;1.00
2639;DHT22;1329;51.384;7.122;2022-07-17T09:50:43;27.10;1.00
2639;DHT22;1329;51.384;7.122;2022-07-17T09:53:12;27.00;1.00
2639;DHT22;1329;51.384;7.122;2022-07-17T09:55:41;26.80;1.00
2639;DHT22;1329;51.384;7.122;2022-07-17T09:58:13;26.70;1.00
2639;DHT22;1329;51.384;7.122;2022-07-17T10:00:55;26.40;1.00
2639;DHT22;1329;51.384;7.122;2022-07-17T10:03:26;26.20;1.00
2639;DHT22;1329;51.384;7.122;2022-07-17T10:05:54;26.00;1.00
2639;DHT22;1329;51.384;7.122;2022-07-17T10:08:23;25.80;1.00
2639;DHT22;1329;51.384;7.122;2022-07-17T10:10:54;25.60;1.00
2639;DHT22;1329;51.384;7.122;2022-07-17T10:13:24;25.40;1.00
2639;DHT22;1329;51.384;7.122;2022-07-17T10:15:51;25.20;1.00
2639;DHT22;1329;51.384;7.122;2022-07-17T10:18:21;25.00;1.00
2639;DHT22;1329;51.384;7.122;2022-07-17T10:20:48;24.90;1.00
2639;DHT22;1329;51.384;7.122;2022-07-17T10:23:15;24.70;1.00
2639;DHT22;1329;51.384;7.122;2022-07-17T10:25:44;24.60;1.00
2639;DHT22;1329;51.384;7.122;2022-07-17T10:28:11;24.50;1.00
2639;DHT22;1329;51.384;7.122;2022-07-17T10:30:42;24.40;1.00
2639;DHT22;1329;51.384;7.122;2022-07-17T10:33:16;24.40;1.00
2639;DHT22;1329;51.384;7.122;2022-07-17T10:35:47;24.30;1.00
2639;DHT22;1329;51.384;7.122;2022-07-17T10:38:15;24.30;1.00
2639;DHT22;1329;51.384;7.122;2022-07-17T10:40:45;24.20;1.00
2639;DHT22;1329;51.384;7.122;2022-07-17T10:43:15;24.20;1.00
2639;DHT22;1329;51.384;7.122;2022-07-17T10:45:45;24.20;1.00
2639;DHT22;1329;51.384;7.122;2022-07-17T10:48:16;24.30;1.00
2639;DHT22;1329;51.384;7.122;2022-07-17T10:50:47;24.30;1.00
2639;DHT22;1329;51.384;7.122;2022-07-17T10:53:17;24.30;1.00
2639;DHT22;1329;51.384;7.122;2022-07-17T10:55:50;24.40;1.00
2639;DHT22;1329;51.384;7.122;2022-07-17T10:58:24;24.40;1.00
2639;DHT22;1329;51.384;7.122;2022-07-17T11:01:02;24.40;1.00
2639;DHT22;1329;51.384;7.122;2022-07-17T11:03:36;24.40;1.00
2639;DHT22;1329;51.384;7.122;2022-07-17T11:06:16;24.40;1.00
2639;DHT22;1329;51.384;7.122;2022-07-17T11:08:48;24.50;1.00
2639;DHT22;1329;51.384;7.122;2022-07-17T11:11:20;24.50;1.00
2639;DHT22;1329;51.384;7.122;2022-07-17T11:13:48;24.60;1.00
2639;DHT22;1329;51.384;7.122;2022-07-17T11:16:25;24.60;1.00
2639;DHT22;1329;51.384;7.122;2022-07-17T11:18:52;24.70;1.00
2639;DHT22;1329;51.384;7.122;2022-07-17T11:21:24;24.80;1.00
2639;DHT22;1329;51.384;7.122;2022-07-17T11:23:55;24.90;1.00
2639;DHT22;1329;51.384;7.122;2022-07-17T11:26:27;24.90;1.00
2639;DHT22;1329;51.384;7.122;2022-07-17T11:28:56;25.10;1.00
2639;DHT22;1329;51.384;7.122;2022-07-17T11:31:26;25.10;1.00
2639;DHT22;1329;51.384;7.122;2022-07-17T11:33:55;25.10;1.00
2639;DHT22;1329;51.384;7.122;2022-07-17T11:36:25;25.20;1.00
2639;DHT22;1329;51.384;7.122;2022-07-17T11:38:56;25.20;1.00
2639;DHT22;1329;51.384;7.122;2022-07-17T11:41:34;25.30;1.00
2639;DHT22;1329;51.384;7.122;2022-07-17T11:44:03;25.40;1.00
2639;DHT22;1329;51.384;7.122;2022-07-17T11:46:32;25.40;1.00
2639;DHT22;1329;51.384;7.122;2022-07-17T11:49:04;25.50;1.00
2639;DHT22;1329;51.384;7.122;2022-07-17T11:51:38;25.60;1.00
2639;DHT22;1329;51.384;7.122;2022-07-17T11:54:11;25.70;1.00
2639;DHT22;1329;51.384;7.122;2022-07-17T11:56:42;25.70;1.00
2639;DHT22;1329;51.384;7.122;2022-07-17T11:59:26;25.80;1.00
2639;DHT22;1329;51.384;7.122;2022-07-17T12:01:56;25.90;1.00
2639;DHT22;1329;51.384;7.122;2022-07-17T12:04:25;25.90;1.00
2639;DHT22;1329;51.384;7.122;2022-07-17T12:07:01;26.10;1.00
2639;DHT22;1329;51.384;7.122;2022-07-17T12:09:33;26.10;1.00
2639;DHT22;1329;51.384;7.122;2022-07-17T12:12:03;26.20;1.00
2639;DHT22;1329;51.384;7.122;2022-07-17T12:14:31;26.30;1.00
2639;DHT22;1329;51.384;7.122;2022-07-17T12:17:05;26.40;1.00
2639;DHT22;1329;51.384;7.122;2022-07-17T12:19:35;26.40;1.00
2639;DHT22;1329;51.384;7.122;2022-07-17T12:22:04;26.50;1.00
2639;DHT22;1329;51.384;7.122;2022-07-17T12:24:36;26.60;1.00
2639;DHT22;1329;51.384;7.122;2022-07-17T12:27:13;26.70;1.00
2639;DHT22;1329;51.384;7.122;2022-07-17T12:29:51;26.80;1.00
2639;DHT22;1329;51.384;7.122;2022-07-17T12:32:21;26.80;1.00
2639;DHT22;1329;51.384;7.122;2022-07-17T12:34:52;26.90;1.00
2639;DHT22;1329;51.384;7.122;2022-07-17T12:37:21;27.00;1.00
2639;DHT22;1329;51.384;7.122;2022-07-17T12:39:49;27.10;1.00
2639;DHT22;1329;51.384;7.122;2022-07-17T12:42:25;27.10;1.00
2639;DHT22;1329;51.384;7.122;2022-07-17T12:45:01;27.20;1.00
2639;DHT22;1329;51.384;7.122;2022-07-17T12:47:32;27.30;1.00
2639;DHT22;1329;51.384;7.122;2022-07-17T12:50:03;27.40;1.00
2639;DHT22;1329;51.384;7.122;2022-07-17T12:52:42;27.50;1.00
2639;DHT22;1329;51.384;7.122;2022-07-17T12:55:21;27.60;1.00
2639;DHT22;1329;51.384;7.122;2022-07-17T12:57:52;27.70;1.00
2639;DHT22;1329;51.384;7.122;2022-07-17T13:00:24;27.70;1.00
2639;DHT22;1329;51.384;7.122;2022-07-17T13:02:57;27.70;1.00
2639;DHT22;1329;51.384;7.122;2022-07-17T13:05:37;27.80;1.00
2639;DHT22;1329;51.384;7.122;2022-07-17T13:08:17;27.80;1.00
2639;DHT22;1329;51.384;7.122;2022-07-17T13:10:48;27.80;1.00
2639;DHT22;1329;51.384;7.122;2022-07-17T13:13:17;27.90;1.00
2639;DHT22;1329;51.384;7.122;2022-07-17T13:15:47;27.90;1.00
2639;DHT22;1329;51.384;7.122;2022-07-17T13:18:14;28.00;1.00
2639;DHT22;1329;51.384;7.122;2022-07-17T13:20:42;28.10;1.00
2639;DHT22;1329;51.384;7.122;2022-07-17T13:23:09;28.20;1.00
2639;DHT22;1329;51.384;7.122;2022-07-17T13:25:37;28.30;1.00
2639;DHT22;1329;51.384;7.122;2022-07-17T13:28:08;28.30;1.00
2639;DHT22;1329;51.384;7.122;2022-07-17T13:30:40;28.40;1.00
2639;DHT22;1329;51.384;7.122;2022-07-17T13:33:13;28.50;1.00
2639;DHT22;1329;51.384;7.122;2022-07-17T13:35:41;28.60;1.00
2639;DHT22;1329;51.384;7.122;2022-07-17T13:38:12;28.60;1.00
2639;DHT22;1329;51.384;7.122;2022-07-17T13:40:44;28.70;1.00
2639;DHT22;1329;51.384;7.122;2022-07-17T13:43:14;28.70;1.00
2639;DHT22;1329;51.384;7.122;2022-07-17T13:45:45;28.80;1.00
2639;DHT22;1329;51.384;7.122;2022-07-17T13:48:21;28.80;1.00
2639;DHT22;1329;51.384;7.122;2022-07-17T13:50:50;28.80;1.00
2639;DHT22;1329;51.384;7.122;2022-07-17T13:53:19;28.80;1.00
2639;DHT22;1329;51.384;7.122;2022-07-17T13:55:55;28.80;1.00
2639;DHT22;1329;51.384;7.122;2022-07-17T13:58:26;28.80;1.00
2639;DHT22;1329;51.384;7.122;2022-07-17T14:00:55;28.80;1.00
2639;DHT22;1329;51.384;7.122;2022-07-17T14:03:23;28.80;1.00
2639;DHT22;1329;51.384;7.122;2022-07-17T14:05:51;28.80;1.00
2639;DHT22;1329;51.384;7.122;2022-07-17T14:08:21;28.80;1.00
2639;DHT22;1329;51.384;7.122;2022-07-17T14:10:56;28.80;1.00
2639;DHT22;1329;51.384;7.122;2022-07-17T14:13:26;28.80;1.00
2639;DHT22;1329;51.384;7.122;2022-07-17T14:16:04;28.80;1.00
2639;DHT22;1329;51.384;7.122;2022-07-17T14:18:32;28.80;1.00
2639;DHT22;1329;51.384;7.122;2022-07-17T14:21:48;28.90;1.00
2639;DHT22;1329;51.384;7.122;2022-07-17T14:24:19;29.00;1.00
2639;DHT22;1329;51.384;7.122;2022-07-17T14:26:47;29.00;1.00
2639;DHT22;1329;51.384;7.122;2022-07-17T14:29:34;29.10;1.00
2639;DHT22;1329;51.384;7.122;2022-07-17T14:32:06;29.20;1.00
2639;DHT22;1329;51.384;7.122;2022-07-17T14:34:34;29.20;1.00
2639;DHT22;1329;51.384;7.122;2022-07-17T14:37:08;29.30;1.00
2639;DHT22;1329;51.384;7.122;2022-07-17T14:39:37;29.40;1.00
2639;DHT22;1329;51.384;7.122;2022-07-17T14:42:05;29.50;1.00
2639;DHT22;1329;51.384;7.122;2022-07-17T14:44:35;29.60;1.00
2639;DHT22;1329;51.384;7.122;2022-07-17T14:47:07;29.60;1.00
2639;DHT22;1329;51.384;7.122;2022-07-17T14:49:42;29.70;1.00
2639;DHT22;1329;51.384;7.122;2022-07-17T14:52:10;29.80;1.00
2639;DHT22;1329;51.384;7.122;2022-07-17T14:54:40;29.90;1.00
2639;DHT22;1329;51.384;7.122;2022-07-17T14:57:11;30.00;1.00
2639;DHT22;1329;51.384;7.122;2022-07-17T14:59:50;30.00;1.00
2639;DHT22;1329;51.384;7.122;2022-07-17T15:02:30;30.10;1.00
2639;DHT22;1329;51.384;7.122;2022-07-17T15:04:59;30.20;1.00
2639;DHT22;1329;51.384;7.122;2022-07-17T15:07:29;30.20;1.00
2639;DHT22;1329;51.384;7.122;2022-07-17T15:10:00;30.30;1.00
2639;DHT22;1329;51.384;7.122;2022-07-17T15:12:31;30.30;1.00
2639;DHT22;1329;51.384;7.122;2022-07-17T15:15:01;30.30;1.00
2639;DHT22;1329;51.384;7.122;2022-07-17T15:17:30;30.30;1.00
2639;DHT22;1329;51.384;7.122;2022-07-17T15:19:57;30.30;1.00
2639;DHT22;1329;51.384;7.122;2022-07-17T15:22:28;30.30;1.00
2639;DHT22;1329;51.384;7.122;2022-07-17T15:24:59;30.30;1.00
2639;DHT22;1329;51.384;7.122;2022-07-17T15:27:33;30.30;1.00
2639;DHT22;1329;51.384;7.122;2022-07-17T15:30:11;30.30;1.00
2639;DHT22;1329;51.384;7.122;2022-07-17T15:32:57;30.30;1.00
2639;DHT22;1329;51.384;7.122;2022-07-17T15:35:35;30.30;1.00
2639;DHT22;1329;51.384;7.122;2022-07-17T15:38:11;30.30;1.00
2639;DHT22;1329;51.384;7.122;2022-07-17T15:40:56;30.30;1.00
2639;DHT22;1329;51.384;7.122;2022-07-17T15:43:38;30.40;1.00
2639;DHT22;1329;51.384;7.122;2022-07-17T15:46:25;30.40;1.00
2639;DHT22;1329;51.384;7.122;2022-07-17T15:49:06;30.40;1.00
2639;DHT22;1329;51.384;7.122;2022-07-17T15:51:50;30.40;1.00
2639;DHT22;1329;51.384;7.122;2022-07-17T15:54:36;30.40;1.00
2639;DHT22;1329;51.384;7.122;2022-07-17T15:57:14;30.40;1.00
2639;DHT22;1329;51.384;7.122;2022-07-17T15:59:57;30.40;1.00
2639;DHT22;1329;51.384;7.122;2022-07-17T16:02:46;30.40;1.00
2639;DHT22;1329;51.384;7.122;2022-07-17T16:05:44;30.40;1.00
2639;DHT22;1329;51.384;7.122;2022-07-17T16:08:28;30.50;1.00
2639;DHT22;1329;51.384;7.122;2022-07-17T16:11:09;30.50;1.00
2639;DHT22;1329;51.384;7.122;2022-07-17T16:13:50;30.50;1.00
2639;DHT22;1329;51.384;7.122;2022-07-17T16:16:39;30.60;1.00
2639;DHT22;1329;51.384;7.122;2022-07-17T16:19:24;30.70;1.00
2639;DHT22;1329;51.384;7.122;2022-07-17T16:22:13;30.70;1.00
2639;DHT22;1329;51.384;7.122;2022-07-17T16:24:48;30.80;1.00
2639;DHT22;1329;51.384;7.122;2022-07-17T16:27:28;30.80;1.00
2639;DHT22;1329;51.384;7.122;2022-07-17T16:30:12;30.90;1.00
2639;DHT22;1329;51.384;7.122;2022-07-17T16:32:46;30.90;1.00
2639;DHT22;1329;51.384;7.122;2022-07-17T16:35:22;30.90;1.00
2639;DHT22;1329;51.384;7.122;2022-07-17T16:37:52;30.80;1.00